Aviation Digital Data Service (ADDS)

Output produced by METARs form (0242 UTC 05 July 2015)
found at http://aviationweather.gov/adds/metars/
 
KHKY 042328Z 0500/0524 22008KT P6SM VCSH SCT040 OVC080 
     FM050200 VRB03KT P6SM SCT050 OVC080 
     FM050800 00000KT 4SM BR SCT010 OVC050 
     FM051300 22005KT P6SM SHRA SCT030 OVC060 
     FM051800 21006KT P6SM SCT040 BKN100